sensor_id;sensor_type;location;lat;lon;timestamp;P1;durP1;ratioP1;P2;durP2;ratioP2
33814;SDS011;20121;51.910;8.406;2023-07-30T00:00:48;3.08;;;2.63;;
33814;SDS011;20121;51.910;8.406;2023-07-30T00:03:15;2.20;;;2.00;;
33814;SDS011;20121;51.910;8.406;2023-07-30T00:05:41;13.63;;;2.80;;
33814;SDS011;20121;51.910;8.406;2023-07-30T00:08:06;1.93;;;1.73;;
33814;SDS011;20121;51.910;8.406;2023-07-30T00:10:32;2.30;;;1.83;;
33814;SDS011;20121;51.910;8.406;2023-07-30T00:13:00;3.15;;;2.10;;
33814;SDS011;20121;51.910;8.406;2023-07-30T00:15:26;4.80;;;2.40;;
33814;SDS011;20121;51.910;8.406;2023-07-30T00:17:52;2.20;;;2.00;;
33814;SDS011;20121;51.910;8.406;2023-07-30T00:20:17;2.80;;;2.33;;
33814;SDS011;20121;51.910;8.406;2023-07-30T00:22:43;2.20;;;2.00;;
33814;SDS011;20121;51.910;8.406;2023-07-30T00:25:08;3.43;;;1.90;;
33814;SDS011;20121;51.910;8.406;2023-07-30T00:27:34;2.27;;;2.07;;
33814;SDS011;20121;51.910;8.406;2023-07-30T00:30:00;1.70;;;1.60;;
33814;SDS011;20121;51.910;8.406;2023-07-30T00:32:25;1.90;;;1.73;;
33814;SDS011;20121;51.910;8.406;2023-07-30T00:34:51;1.63;;;1.53;;
33814;SDS011;20121;51.910;8.406;2023-07-30T00:37:16;1.93;;;1.80;;
33814;SDS011;20121;51.910;8.406;2023-07-30T00:39:42;2.27;;;1.83;;
33814;SDS011;20121;51.910;8.406;2023-07-30T00:42:08;2.63;;;1.67;;
33814;SDS011;20121;51.910;8.406;2023-07-30T00:44:33;2.33;;;1.90;;
33814;SDS011;20121;51.910;8.406;2023-07-30T00:46:59;2.17;;;1.77;;
33814;SDS011;20121;51.910;8.406;2023-07-30T00:49:24;2.20;;;2.00;;
33814;SDS011;20121;51.910;8.406;2023-07-30T00:51:50;3.10;;;1.93;;
33814;SDS011;20121;51.910;8.406;2023-07-30T00:54:16;5.33;;;2.33;;
33814;SDS011;20121;51.910;8.406;2023-07-30T00:56:42;2.70;;;2.20;;
33814;SDS011;20121;51.910;8.406;2023-07-30T00:59:15;1.42;;;1.33;;
33814;SDS011;20121;51.910;8.406;2023-07-30T01:01:41;5.07;;;3.20;;
33814;SDS011;20121;51.910;8.406;2023-07-30T01:04:08;2.83;;;2.42;;
33814;SDS011;20121;51.910;8.406;2023-07-30T01:06:34;2.67;;;2.20;;
33814;SDS011;20121;51.910;8.406;2023-07-30T01:08:59;4.07;;;3.23;;
33814;SDS011;20121;51.910;8.406;2023-07-30T01:11:25;4.07;;;2.80;;
33814;SDS011;20121;51.910;8.406;2023-07-30T01:13:51;3.13;;;2.38;;
33814;SDS011;20121;51.910;8.406;2023-07-30T01:16:18;6.93;;;3.58;;
33814;SDS011;20121;51.910;8.406;2023-07-30T01:18:44;5.80;;;3.30;;
33814;SDS011;20121;51.910;8.406;2023-07-30T01:21:11;6.32;;;3.28;;
33814;SDS011;20121;51.910;8.406;2023-07-30T01:23:37;3.67;;;2.40;;
33814;SDS011;20121;51.910;8.406;2023-07-30T01:26:04;2.00;;;1.80;;
33814;SDS011;20121;51.910;8.406;2023-07-30T01:28:39;3.97;;;2.58;;
33814;SDS011;20121;51.910;8.406;2023-07-30T01:31:12;2.00;;;1.65;;
33814;SDS011;20121;51.910;8.406;2023-07-30T01:33:40;3.83;;;2.72;;
33814;SDS011;20121;51.910;8.406;2023-07-30T01:38:46;3.83;;;2.97;;
33814;SDS011;20121;51.910;8.406;2023-07-30T01:41:14;6.68;;;2.20;;
33814;SDS011;20121;51.910;8.406;2023-07-30T01:43:39;1.77;;;1.63;;
33814;SDS011;20121;51.910;8.406;2023-07-30T01:46:05;2.20;;;2.07;;
33814;SDS011;20121;51.910;8.406;2023-07-30T01:48:31;3.10;;;2.60;;
33814;SDS011;20121;51.910;8.406;2023-07-30T01:50:57;3.23;;;2.20;;
33814;SDS011;20121;51.910;8.406;2023-07-30T01:53:22;3.07;;;2.30;;
33814;SDS011;20121;51.910;8.406;2023-07-30T01:55:48;1.63;;;1.20;;
33814;SDS011;20121;51.910;8.406;2023-07-30T01:58:13;1.37;;;1.10;;
33814;SDS011;20121;51.910;8.406;2023-07-30T02:00:40;2.20;;;1.40;;
33814;SDS011;20121;51.910;8.406;2023-07-30T02:03:06;3.28;;;1.98;;
33814;SDS011;20121;51.910;8.406;2023-07-30T02:05:32;2.60;;;1.93;;
33814;SDS011;20121;51.910;8.406;2023-07-30T02:07:57;2.57;;;1.40;;
33814;SDS011;20121;51.910;8.406;2023-07-30T02:10:24;1.93;;;1.73;;
33814;SDS011;20121;51.910;8.406;2023-07-30T02:12:50;2.47;;;1.92;;
33814;SDS011;20121;51.910;8.406;2023-07-30T02:15:16;1.73;;;1.43;;
33814;SDS011;20121;51.910;8.406;2023-07-30T02:17:41;1.70;;;1.60;;
33814;SDS011;20121;51.910;8.406;2023-07-30T02:20:08;1.53;;;1.43;;
33814;SDS011;20121;51.910;8.406;2023-07-30T02:22:34;2.75;;;1.52;;
33814;SDS011;20121;51.910;8.406;2023-07-30T02:24:59;1.97;;;1.77;;
33814;SDS011;20121;51.910;8.406;2023-07-30T02:27:25;2.80;;;1.60;;
33814;SDS011;20121;51.910;8.406;2023-07-30T02:29:51;4.00;;;2.37;;
33814;SDS011;20121;51.910;8.406;2023-07-30T02:32:16;2.40;;;1.90;;
33814;SDS011;20121;51.910;8.406;2023-07-30T02:34:42;2.72;;;2.20;;
33814;SDS011;20121;51.910;8.406;2023-07-30T02:37:08;3.23;;;2.20;;
33814;SDS011;20121;51.910;8.406;2023-07-30T02:39:33;2.40;;;2.20;;
33814;SDS011;20121;51.910;8.406;2023-07-30T02:41:59;2.30;;;2.10;;
33814;SDS011;20121;51.910;8.406;2023-07-30T02:44:25;5.07;;;2.60;;
33814;SDS011;20121;51.910;8.406;2023-07-30T02:46:50;1.73;;;1.40;;
33814;SDS011;20121;51.910;8.406;2023-07-30T02:49:16;4.23;;;2.60;;
33814;SDS011;20121;51.910;8.406;2023-07-30T02:51:41;1.83;;;1.60;;
33814;SDS011;20121;51.910;8.406;2023-07-30T02:54:13;2.03;;;1.75;;
33814;SDS011;20121;51.910;8.406;2023-07-30T02:56:39;2.37;;;2.13;;
33814;SDS011;20121;51.910;8.406;2023-07-30T02:59:04;8.40;;;2.13;;
33814;SDS011;20121;51.910;8.406;2023-07-30T03:01:30;1.77;;;1.33;;
33814;SDS011;20121;51.910;8.406;2023-07-30T03:03:56;6.83;;;2.07;;
33814;SDS011;20121;51.910;8.406;2023-07-30T03:06:21;5.43;;;2.37;;
33814;SDS011;20121;51.910;8.406;2023-07-30T03:08:47;2.40;;;2.13;;
33814;SDS011;20121;51.910;8.406;2023-07-30T03:11:12;10.00;;;2.10;;
33814;SDS011;20121;51.910;8.406;2023-07-30T03:13:38;2.30;;;2.03;;
33814;SDS011;20121;51.910;8.406;2023-07-30T03:16:04;2.87;;;2.07;;
33814;SDS011;20121;51.910;8.406;2023-07-30T03:18:30;1.80;;;1.50;;
33814;SDS011;20121;51.910;8.406;2023-07-30T03:20:59;4.10;;;1.63;;
33814;SDS011;20121;51.910;8.406;2023-07-30T03:23:25;2.58;;;1.98;;
33814;SDS011;20121;51.910;8.406;2023-07-30T03:25:51;3.65;;;1.35;;
33814;SDS011;20121;51.910;8.406;2023-07-30T03:28:17;3.83;;;2.43;;
33814;SDS011;20121;51.910;8.406;2023-07-30T03:30:43;1.43;;;1.33;;
33814;SDS011;20121;51.910;8.406;2023-07-30T03:33:08;3.03;;;2.00;;
33814;SDS011;20121;51.910;8.406;2023-07-30T03:35:34;6.00;;;2.07;;
33814;SDS011;20121;51.910;8.406;2023-07-30T03:38:00;2.80;;;1.50;;
33814;SDS011;20121;51.910;8.406;2023-07-30T03:40:25;1.83;;;1.20;;
33814;SDS011;20121;51.910;8.406;2023-07-30T03:42:51;3.43;;;1.70;;
33814;SDS011;20121;51.910;8.406;2023-07-30T03:45:17;1.73;;;1.60;;
33814;SDS011;20121;51.910;8.406;2023-07-30T03:47:42;1.57;;;1.47;;
33814;SDS011;20121;51.910;8.406;2023-07-30T03:50:08;1.77;;;1.67;;
33814;SDS011;20121;51.910;8.406;2023-07-30T03:52:34;2.00;;;1.60;;
33814;SDS011;20121;51.910;8.406;2023-07-30T03:54:59;2.70;;;1.30;;
33814;SDS011;20121;51.910;8.406;2023-07-30T03:57:25;1.60;;;1.50;;
33814;SDS011;20121;51.910;8.406;2023-07-30T03:59:51;1.47;;;1.37;;
33814;SDS011;20121;51.910;8.406;2023-07-30T04:02:17;1.50;;;1.40;;
33814;SDS011;20121;51.910;8.406;2023-07-30T04:04:42;2.37;;;1.37;;
33814;SDS011;20121;51.910;8.406;2023-07-30T04:07:13;3.13;;;1.77;;
33814;SDS011;20121;51.910;8.406;2023-07-30T04:09:39;1.90;;;1.63;;
33814;SDS011;20121;51.910;8.406;2023-07-30T04:12:05;2.40;;;1.60;;
33814;SDS011;20121;51.910;8.406;2023-07-30T04:14:31;1.33;;;1.23;;
33814;SDS011;20121;51.910;8.406;2023-07-30T04:16:56;1.73;;;1.50;;
33814;SDS011;20121;51.910;8.406;2023-07-30T04:19:22;1.50;;;1.30;;
33814;SDS011;20121;51.910;8.406;2023-07-30T04:21:47;1.43;;;1.33;;
33814;SDS011;20121;51.910;8.406;2023-07-30T04:24:13;2.40;;;1.47;;
33814;SDS011;20121;51.910;8.406;2023-07-30T04:26:39;2.27;;;1.37;;
33814;SDS011;20121;51.910;8.406;2023-07-30T04:29:04;4.87;;;1.80;;
33814;SDS011;20121;51.910;8.406;2023-07-30T04:31:30;1.80;;;1.70;;
33814;SDS011;20121;51.910;8.406;2023-07-30T04:33:57;1.35;;;1.15;;
33814;SDS011;20121;51.910;8.406;2023-07-30T04:36:23;2.03;;;1.30;;
33814;SDS011;20121;51.910;8.406;2023-07-30T04:38:49;1.80;;;1.40;;
33814;SDS011;20121;51.910;8.406;2023-07-30T04:41:14;4.37;;;1.47;;
33814;SDS011;20121;51.910;8.406;2023-07-30T04:43:40;1.23;;;1.13;;
33814;SDS011;20121;51.910;8.406;2023-07-30T04:46:06;1.87;;;1.60;;
33814;SDS011;20121;51.910;8.406;2023-07-30T04:48:31;1.83;;;1.73;;
33814;SDS011;20121;51.910;8.406;2023-07-30T04:50:57;1.67;;;1.53;;
33814;SDS011;20121;51.910;8.406;2023-07-30T04:53:22;2.47;;;1.60;;
33814;SDS011;20121;51.910;8.406;2023-07-30T04:55:48;1.57;;;1.47;;
33814;SDS011;20121;51.910;8.406;2023-07-30T04:58:19;2.05;;;1.63;;
33814;SDS011;20121;51.910;8.406;2023-07-30T05:00:44;8.80;;;1.70;;
33814;SDS011;20121;51.910;8.406;2023-07-30T05:03:10;1.27;;;1.17;;
33814;SDS011;20121;51.910;8.406;2023-07-30T05:05:36;3.47;;;1.90;;
33814;SDS011;20121;51.910;8.406;2023-07-30T05:08:01;1.60;;;1.50;;
33814;SDS011;20121;51.910;8.406;2023-07-30T05:10:27;3.00;;;2.13;;
33814;SDS011;20121;51.910;8.406;2023-07-30T05:12:52;1.70;;;1.60;;
33814;SDS011;20121;51.910;8.406;2023-07-30T05:15:18;1.20;;;1.10;;
33814;SDS011;20121;51.910;8.406;2023-07-30T05:17:44;2.87;;;1.87;;
33814;SDS011;20121;51.910;8.406;2023-07-30T05:20:09;1.13;;;1.03;;
33814;SDS011;20121;51.910;8.406;2023-07-30T05:22:35;1.63;;;1.53;;
33814;SDS011;20121;51.910;8.406;2023-07-30T05:25:01;1.67;;;1.30;;
33814;SDS011;20121;51.910;8.406;2023-07-30T05:27:26;1.93;;;1.73;;
33814;SDS011;20121;51.910;8.406;2023-07-30T05:29:54;1.38;;;1.27;;
33814;SDS011;20121;51.910;8.406;2023-07-30T05:32:19;15.53;;;1.77;;
33814;SDS011;20121;51.910;8.406;2023-07-30T05:34:45;1.70;;;1.57;;
33814;SDS011;20121;51.910;8.406;2023-07-30T05:37:11;2.67;;;1.97;;
33814;SDS011;20121;51.910;8.406;2023-07-30T05:39:36;1.27;;;1.10;;
33814;SDS011;20121;51.910;8.406;2023-07-30T05:42:02;2.07;;;1.57;;
33814;SDS011;20121;51.910;8.406;2023-07-30T05:44:28;2.87;;;1.50;;
33814;SDS011;20121;51.910;8.406;2023-07-30T05:46:53;3.43;;;3.13;;
33814;SDS011;20121;51.910;8.406;2023-07-30T05:49:19;4.20;;;1.57;;
33814;SDS011;20121;51.910;8.406;2023-07-30T05:51:45;3.87;;;1.57;;
33814;SDS011;20121;51.910;8.406;2023-07-30T05:54:11;2.03;;;1.83;;
33814;SDS011;20121;51.910;8.406;2023-07-30T05:56:37;2.15;;;1.73;;
33814;SDS011;20121;51.910;8.406;2023-07-30T05:59:03;3.80;;;1.60;;
33814;SDS011;20121;51.910;8.406;2023-07-30T06:01:28;2.13;;;1.53;;
33814;SDS011;20121;51.910;8.406;2023-07-30T06:03:54;2.00;;;1.80;;
33814;SDS011;20121;51.910;8.406;2023-07-30T06:06:19;2.40;;;1.73;;
33814;SDS011;20121;51.910;8.406;2023-07-30T06:08:52;1.73;;;1.63;;
33814;SDS011;20121;51.910;8.406;2023-07-30T06:11:18;2.28;;;1.92;;
33814;SDS011;20121;51.910;8.406;2023-07-30T06:13:44;3.23;;;1.30;;
33814;SDS011;20121;51.910;8.406;2023-07-30T06:16:09;2.37;;;1.83;;
33814;SDS011;20121;51.910;8.406;2023-07-30T06:18:35;2.07;;;1.80;;
33814;SDS011;20121;51.910;8.406;2023-07-30T06:21:01;3.53;;;1.57;;
33814;SDS011;20121;51.910;8.406;2023-07-30T06:23:26;1.60;;;1.50;;
33814;SDS011;20121;51.910;8.406;2023-07-30T06:25:52;4.97;;;2.13;;
33814;SDS011;20121;51.910;8.406;2023-07-30T06:28:18;2.10;;;1.73;;
33814;SDS011;20121;51.910;8.406;2023-07-30T06:30:43;2.60;;;1.50;;
33814;SDS011;20121;51.910;8.406;2023-07-30T06:33:09;1.53;;;1.43;;
33814;SDS011;20121;51.910;8.406;2023-07-30T06:35:35;1.60;;;1.50;;
33814;SDS011;20121;51.910;8.406;2023-07-30T06:38:00;4.13;;;1.63;;
33814;SDS011;20121;51.910;8.406;2023-07-30T06:40:26;2.70;;;1.20;;
33814;SDS011;20121;51.910;8.406;2023-07-30T06:42:52;3.80;;;2.30;;
33814;SDS011;20121;51.910;8.406;2023-07-30T06:45:18;2.33;;;1.97;;
33814;SDS011;20121;51.910;8.406;2023-07-30T06:47:43;2.27;;;1.80;;
33814;SDS011;20121;51.910;8.406;2023-07-30T06:50:09;4.80;;;2.50;;
33814;SDS011;20121;51.910;8.406;2023-07-30T06:52:35;2.30;;;1.93;;
33814;SDS011;20121;51.910;8.406;2023-07-30T06:55:01;2.63;;;2.00;;
33814;SDS011;20121;51.910;8.406;2023-07-30T06:57:28;6.43;;;3.53;;
33814;SDS011;20121;51.910;8.406;2023-07-30T06:59:54;5.65;;;4.60;;
33814;SDS011;20121;51.910;8.406;2023-07-30T07:02:20;7.25;;;5.20;;
33814;SDS011;20121;51.910;8.406;2023-07-30T07:04:46;8.63;;;4.90;;
33814;SDS011;20121;51.910;8.406;2023-07-30T07:07:12;9.47;;;4.50;;
33814;SDS011;20121;51.910;8.406;2023-07-30T07:09:37;5.20;;;4.60;;
33814;SDS011;20121;51.910;8.406;2023-07-30T07:12:03;16.03;;;4.83;;
33814;SDS011;20121;51.910;8.406;2023-07-30T07:14:29;10.10;;;5.23;;
33814;SDS011;20121;51.910;8.406;2023-07-30T07:16:54;9.90;;;5.73;;
33814;SDS011;20121;51.910;8.406;2023-07-30T07:19:21;5.15;;;4.00;;
33814;SDS011;20121;51.910;8.406;2023-07-30T07:21:47;10.23;;;4.40;;
33814;SDS011;20121;51.910;8.406;2023-07-30T07:24:12;7.50;;;5.10;;
33814;SDS011;20121;51.910;8.406;2023-07-30T07:26:38;5.03;;;4.30;;
33814;SDS011;20121;51.910;8.406;2023-07-30T07:29:03;7.50;;;4.40;;
33814;SDS011;20121;51.910;8.406;2023-07-30T07:31:29;9.97;;;4.40;;
33814;SDS011;20121;51.910;8.406;2023-07-30T07:33:55;7.87;;;4.67;;
33814;SDS011;20121;51.910;8.406;2023-07-30T07:36:20;4.17;;;3.77;;
33814;SDS011;20121;51.910;8.406;2023-07-30T07:38:46;3.73;;;3.40;;
33814;SDS011;20121;51.910;8.406;2023-07-30T07:41:15;6.33;;;3.73;;
33814;SDS011;20121;51.910;8.406;2023-07-30T07:43:42;8.27;;;3.75;;
33814;SDS011;20121;51.910;8.406;2023-07-30T07:46:08;5.25;;;3.25;;
33814;SDS011;20121;51.910;8.406;2023-07-30T07:48:41;6.25;;;4.68;;
33814;SDS011;20121;51.910;8.406;2023-07-30T07:51:09;7.65;;;3.75;;
33814;SDS011;20121;51.910;8.406;2023-07-30T07:53:38;6.82;;;4.03;;
33814;SDS011;20121;51.910;8.406;2023-07-30T07:56:04;4.90;;;3.30;;
33814;SDS011;20121;51.910;8.406;2023-07-30T07:58:30;11.10;;;5.03;;
33814;SDS011;20121;51.910;8.406;2023-07-30T08:00:56;10.85;;;5.10;;
33814;SDS011;20121;51.910;8.406;2023-07-30T08:03:22;10.15;;;4.47;;
33814;SDS011;20121;51.910;8.406;2023-07-30T08:05:48;8.52;;;4.97;;
33814;SDS011;20121;51.910;8.406;2023-07-30T08:08:15;5.13;;;4.63;;
33814;SDS011;20121;51.910;8.406;2023-07-30T08:10:41;8.10;;;3.73;;
33814;SDS011;20121;51.910;8.406;2023-07-30T08:13:11;8.10;;;4.35;;
33814;SDS011;20121;51.910;8.406;2023-07-30T08:15:38;9.13;;;5.93;;
33814;SDS011;20121;51.910;8.406;2023-07-30T08:18:04;8.27;;;5.70;;
33814;SDS011;20121;51.910;8.406;2023-07-30T08:20:29;7.65;;;4.93;;
33814;SDS011;20121;51.910;8.406;2023-07-30T08:22:55;8.80;;;6.07;;
33814;SDS011;20121;51.910;8.406;2023-07-30T08:25:21;9.93;;;6.63;;
33814;SDS011;20121;51.910;8.406;2023-07-30T08:27:46;11.20;;;6.87;;
33814;SDS011;20121;51.910;8.406;2023-07-30T08:30:12;10.40;;;7.40;;
33814;SDS011;20121;51.910;8.406;2023-07-30T08:32:38;11.83;;;6.20;;
33814;SDS011;20121;51.910;8.406;2023-07-30T08:35:04;8.73;;;6.37;;
33814;SDS011;20121;51.910;8.406;2023-07-30T08:37:30;16.73;;;7.80;;
33814;SDS011;20121;51.910;8.406;2023-07-30T08:39:55;12.53;;;8.20;;
33814;SDS011;20121;51.910;8.406;2023-07-30T08:42:21;9.90;;;7.53;;
33814;SDS011;20121;51.910;8.406;2023-07-30T08:44:47;13.15;;;7.50;;
33814;SDS011;20121;51.910;8.406;2023-07-30T08:47:13;10.20;;;6.83;;
33814;SDS011;20121;51.910;8.406;2023-07-30T08:49:39;11.55;;;7.00;;
33814;SDS011;20121;51.910;8.406;2023-07-30T08:52:05;10.37;;;6.30;;
33814;SDS011;20121;51.910;8.406;2023-07-30T08:54:34;19.02;;;8.15;;
33814;SDS011;20121;51.910;8.406;2023-07-30T08:57:01;14.05;;;6.78;;
33814;SDS011;20121;51.910;8.406;2023-07-30T08:59:27;16.48;;;7.88;;
33814;SDS011;20121;51.910;8.406;2023-07-30T09:01:58;15.13;;;8.05;;
33814;SDS011;20121;51.910;8.406;2023-07-30T09:04:25;12.57;;;7.40;;
33814;SDS011;20121;51.910;8.406;2023-07-30T09:06:52;11.68;;;7.50;;
33814;SDS011;20121;51.910;8.406;2023-07-30T09:09:17;13.90;;;7.13;;
33814;SDS011;20121;51.910;8.406;2023-07-30T09:11:43;17.77;;;8.03;;
33814;SDS011;20121;51.910;8.406;2023-07-30T09:14:08;16.43;;;8.33;;
33814;SDS011;20121;51.910;8.406;2023-07-30T09:16:35;12.18;;;7.00;;
33814;SDS011;20121;51.910;8.406;2023-07-30T09:19:03;18.70;;;8.40;;
33814;SDS011;20121;51.910;8.406;2023-07-30T09:21:32;10.70;;;7.20;;
33814;SDS011;20121;51.910;8.406;2023-07-30T09:24:01;16.20;;;7.30;;
33814;SDS011;20121;51.910;8.406;2023-07-30T09:26:39;12.15;;;6.57;;
33814;SDS011;20121;51.910;8.406;2023-07-30T09:29:09;9.13;;;6.18;;
33814;SDS011;20121;51.910;8.406;2023-07-30T09:31:53;13.77;;;7.40;;
33814;SDS011;20121;51.910;8.406;2023-07-30T09:34:21;11.80;;;6.05;;
33814;SDS011;20121;51.910;8.406;2023-07-30T09:36:49;8.05;;;5.93;;
33814;SDS011;20121;51.910;8.406;2023-07-30T09:39:22;11.32;;;6.57;;
33814;SDS011;20121;51.910;8.406;2023-07-30T09:41:50;7.72;;;5.72;;
33814;SDS011;20121;51.910;8.406;2023-07-30T09:44:17;15.23;;;5.43;;
33814;SDS011;20121;51.910;8.406;2023-07-30T09:46:44;8.73;;;5.45;;
33814;SDS011;20121;51.910;8.406;2023-07-30T09:49:11;14.48;;;5.90;;
33814;SDS011;20121;51.910;8.406;2023-07-30T09:51:39;13.23;;;5.37;;
33814;SDS011;20121;51.910;8.406;2023-07-30T09:54:10;14.20;;;5.40;;
33814;SDS011;20121;51.910;8.406;2023-07-30T09:56:37;12.25;;;6.75;;
33814;SDS011;20121;51.910;8.406;2023-07-30T09:59:04;7.50;;;4.70;;
33814;SDS011;20121;51.910;8.406;2023-07-30T10:01:31;9.35;;;4.78;;
33814;SDS011;20121;51.910;8.406;2023-07-30T10:04:01;7.38;;;5.00;;
33814;SDS011;20121;51.910;8.406;2023-07-30T10:06:32;6.80;;;5.15;;
33814;SDS011;20121;51.910;8.406;2023-07-30T10:09:01;11.38;;;4.95;;
33814;SDS011;20121;51.910;8.406;2023-07-30T10:11:27;10.13;;;5.20;;
33814;SDS011;20121;51.910;8.406;2023-07-30T10:13:53;9.65;;;3.55;;
33814;SDS011;20121;51.910;8.406;2023-07-30T10:16:24;5.93;;;4.88;;
33814;SDS011;20121;51.910;8.406;2023-07-30T10:18:55;6.03;;;4.28;;
33814;SDS011;20121;51.910;8.406;2023-07-30T10:21:23;10.38;;;5.88;;
33814;SDS011;20121;51.910;8.406;2023-07-30T10:24:01;7.47;;;3.92;;
33814;SDS011;20121;51.910;8.406;2023-07-30T10:26:29;7.85;;;4.40;;
33814;SDS011;20121;51.910;8.406;2023-07-30T10:29:13;8.55;;;5.70;;
33814;SDS011;20121;51.910;8.406;2023-07-30T10:31:55;7.45;;;4.75;;
33814;SDS011;20121;51.910;8.406;2023-07-30T10:34:25;10.27;;;3.85;;
33814;SDS011;20121;51.910;8.406;2023-07-30T10:36:52;9.93;;;6.05;;
33814;SDS011;20121;51.910;8.406;2023-07-30T10:39:22;8.05;;;4.35;;
33814;SDS011;20121;51.910;8.406;2023-07-30T10:41:55;7.05;;;4.47;;
33814;SDS011;20121;51.910;8.406;2023-07-30T10:44:30;6.22;;;4.65;;
33814;SDS011;20121;51.910;8.406;2023-07-30T10:46:57;6.47;;;4.32;;
33814;SDS011;20121;51.910;8.406;2023-07-30T10:49:24;7.00;;;3.55;;
33814;SDS011;20121;51.910;8.406;2023-07-30T10:51:53;12.48;;;4.65;;
33814;SDS011;20121;51.910;8.406;2023-07-30T10:54:20;5.57;;;4.78;;
33814;SDS011;20121;51.910;8.406;2023-07-30T10:56:47;15.68;;;5.75;;
33814;SDS011;20121;51.910;8.406;2023-07-30T10:59:13;5.77;;;3.83;;
33814;SDS011;20121;51.910;8.406;2023-07-30T11:01:40;3.97;;;3.45;;
33814;SDS011;20121;51.910;8.406;2023-07-30T11:04:17;3.28;;;2.97;;
33814;SDS011;20121;51.910;8.406;2023-07-30T11:06:45;11.20;;;5.90;;
33814;SDS011;20121;51.910;8.406;2023-07-30T11:09:18;3.30;;;3.00;;
33814;SDS011;20121;51.910;8.406;2023-07-30T11:11:48;3.17;;;2.88;;
33814;SDS011;20121;51.910;8.406;2023-07-30T11:14:15;7.00;;;3.85;;
33814;SDS011;20121;51.910;8.406;2023-07-30T11:16:52;6.80;;;4.53;;
33814;SDS011;20121;51.910;8.406;2023-07-30T11:19:19;4.95;;;3.50;;
33814;SDS011;20121;51.910;8.406;2023-07-30T11:21:49;5.72;;;3.80;;
33814;SDS011;20121;51.910;8.406;2023-07-30T11:24:16;6.15;;;2.88;;
33814;SDS011;20121;51.910;8.406;2023-07-30T11:26:42;4.07;;;3.10;;
33814;SDS011;20121;51.910;8.406;2023-07-30T11:29:15;3.22;;;2.72;;
33814;SDS011;20121;51.910;8.406;2023-07-30T11:31:45;3.40;;;3.10;;
33814;SDS011;20121;51.910;8.406;2023-07-30T11:34:12;3.35;;;3.03;;
33814;SDS011;20121;51.910;8.406;2023-07-30T11:36:39;13.48;;;4.07;;
33814;SDS011;20121;51.910;8.406;2023-07-30T11:39:06;3.97;;;3.17;;
33814;SDS011;20121;51.910;8.406;2023-07-30T11:41:33;4.00;;;2.40;;
33814;SDS011;20121;51.910;8.406;2023-07-30T11:43:59;3.60;;;2.85;;
33814;SDS011;20121;51.910;8.406;2023-07-30T11:46:24;5.30;;;3.57;;
33814;SDS011;20121;51.910;8.406;2023-07-30T11:48:51;3.60;;;3.07;;
33814;SDS011;20121;51.910;8.406;2023-07-30T11:51:22;4.20;;;2.60;;
33814;SDS011;20121;51.910;8.406;2023-07-30T11:53:58;4.13;;;3.35;;
33814;SDS011;20121;51.910;8.406;2023-07-30T11:56:29;4.38;;;2.50;;
33814;SDS011;20121;51.910;8.406;2023-07-30T11:58:59;4.30;;;2.67;;
33814;SDS011;20121;51.910;8.406;2023-07-30T12:01:26;3.70;;;2.90;;
33814;SDS011;20121;51.910;8.406;2023-07-30T12:03:57;3.00;;;2.53;;
33814;SDS011;20121;51.910;8.406;2023-07-30T12:06:24;4.10;;;3.00;;
33814;SDS011;20121;51.910;8.406;2023-07-30T12:09:15;3.58;;;2.45;;
33814;SDS011;20121;51.910;8.406;2023-07-30T12:11:47;5.28;;;2.67;;
33814;SDS011;20121;51.910;8.406;2023-07-30T12:14:14;7.75;;;3.05;;
33814;SDS011;20121;51.910;8.406;2023-07-30T12:16:40;5.32;;;2.50;;
33814;SDS011;20121;51.910;8.406;2023-07-30T12:19:06;7.20;;;3.03;;
33814;SDS011;20121;51.910;8.406;2023-07-30T12:21:32;2.37;;;2.17;;
33814;SDS011;20121;51.910;8.406;2023-07-30T12:23:57;5.63;;;2.10;;
33814;SDS011;20121;51.910;8.406;2023-07-30T12:26:23;3.07;;;2.43;;
33814;SDS011;20121;51.910;8.406;2023-07-30T12:28:49;2.53;;;2.33;;
33814;SDS011;20121;51.910;8.406;2023-07-30T12:31:14;2.10;;;2.00;;
33814;SDS011;20121;51.910;8.406;2023-07-30T12:33:40;1.63;;;1.53;;
33814;SDS011;20121;51.910;8.406;2023-07-30T12:36:05;4.07;;;2.07;;
33814;SDS011;20121;51.910;8.406;2023-07-30T12:38:31;3.00;;;2.33;;
33814;SDS011;20121;51.910;8.406;2023-07-30T12:40:57;5.50;;;1.90;;
33814;SDS011;20121;51.910;8.406;2023-07-30T12:43:22;2.87;;;2.33;;
33814;SDS011;20121;51.910;8.406;2023-07-30T12:45:48;2.63;;;1.80;;
33814;SDS011;20121;51.910;8.406;2023-07-30T12:48:14;4.37;;;2.53;;
33814;SDS011;20121;51.910;8.406;2023-07-30T12:50:39;4.00;;;2.33;;
33814;SDS011;20121;51.910;8.406;2023-07-30T12:53:05;3.33;;;2.73;;
33814;SDS011;20121;51.910;8.406;2023-07-30T12:55:30;3.07;;;2.30;;
33814;SDS011;20121;51.910;8.406;2023-07-30T12:57:56;4.80;;;2.37;;
33814;SDS011;20121;51.910;8.406;2023-07-30T13:00:22;2.80;;;2.00;;
33814;SDS011;20121;51.910;8.406;2023-07-30T13:02:47;1.97;;;1.67;;
33814;SDS011;20121;51.910;8.406;2023-07-30T13:05:13;7.80;;;2.47;;
33814;SDS011;20121;51.910;8.406;2023-07-30T13:07:40;4.72;;;2.20;;
33814;SDS011;20121;51.910;8.406;2023-07-30T13:10:07;2.73;;;2.30;;
33814;SDS011;20121;51.910;8.406;2023-07-30T13:12:33;2.25;;;1.92;;
33814;SDS011;20121;51.910;8.406;2023-07-30T13:15:00;3.35;;;1.75;;
33814;SDS011;20121;51.910;8.406;2023-07-30T13:17:26;2.65;;;2.35;;
33814;SDS011;20121;51.910;8.406;2023-07-30T13:19:52;4.40;;;2.97;;
33814;SDS011;20121;51.910;8.406;2023-07-30T13:22:17;5.53;;;2.47;;
33814;SDS011;20121;51.910;8.406;2023-07-30T13:24:43;2.17;;;1.97;;
33814;SDS011;20121;51.910;8.406;2023-07-30T13:27:09;2.00;;;1.80;;
33814;SDS011;20121;51.910;8.406;2023-07-30T13:29:34;8.60;;;2.07;;
33814;SDS011;20121;51.910;8.406;2023-07-30T13:32:00;3.20;;;2.33;;
33814;SDS011;20121;51.910;8.406;2023-07-30T13:34:26;2.60;;;2.10;;
33814;SDS011;20121;51.910;8.406;2023-07-30T13:36:51;4.00;;;2.13;;
33814;SDS011;20121;51.910;8.406;2023-07-30T13:39:17;2.13;;;1.60;;
33814;SDS011;20121;51.910;8.406;2023-07-30T13:41:43;4.63;;;1.98;;
33814;SDS011;20121;51.910;8.406;2023-07-30T13:44:09;3.73;;;1.33;;
33814;SDS011;20121;51.910;8.406;2023-07-30T13:46:36;5.35;;;1.98;;
33814;SDS011;20121;51.910;8.406;2023-07-30T13:49:02;2.63;;;2.03;;
33814;SDS011;20121;51.910;8.406;2023-07-30T13:51:28;4.40;;;2.70;;
33814;SDS011;20121;51.910;8.406;2023-07-30T13:53:57;3.20;;;1.70;;
33814;SDS011;20121;51.910;8.406;2023-07-30T13:56:24;2.10;;;1.65;;
33814;SDS011;20121;51.910;8.406;2023-07-30T13:58:50;2.73;;;1.60;;
33814;SDS011;20121;51.910;8.406;2023-07-30T14:01:16;2.17;;;1.53;;
33814;SDS011;20121;51.910;8.406;2023-07-30T14:03:42;4.00;;;2.13;;
33814;SDS011;20121;51.910;8.406;2023-07-30T14:06:08;2.50;;;1.90;;
33814;SDS011;20121;51.910;8.406;2023-07-30T14:08:34;2.03;;;1.60;;
33814;SDS011;20121;51.910;8.406;2023-07-30T14:11:00;4.20;;;2.50;;
33814;SDS011;20121;51.910;8.406;2023-07-30T14:13:25;1.10;;;1.00;;
33814;SDS011;20121;51.910;8.406;2023-07-30T14:15:51;2.20;;;2.00;;
33814;SDS011;20121;51.910;8.406;2023-07-30T14:18:17;1.57;;;1.40;;
33814;SDS011;20121;51.910;8.406;2023-07-30T14:20:43;3.07;;;1.60;;
33814;SDS011;20121;51.910;8.406;2023-07-30T14:23:08;4.17;;;2.20;;
33814;SDS011;20121;51.910;8.406;2023-07-30T14:25:35;2.10;;;1.88;;
33814;SDS011;20121;51.910;8.406;2023-07-30T14:28:00;2.07;;;1.70;;
33814;SDS011;20121;51.910;8.406;2023-07-30T14:30:26;4.33;;;2.30;;
33814;SDS011;20121;51.910;8.406;2023-07-30T14:32:52;2.67;;;2.20;;
33814;SDS011;20121;51.910;8.406;2023-07-30T14:35:17;1.47;;;1.37;;
33814;SDS011;20121;51.910;8.406;2023-07-30T14:37:43;2.40;;;1.60;;
33814;SDS011;20121;51.910;8.406;2023-07-30T14:40:08;5.57;;;1.50;;
33814;SDS011;20121;51.910;8.406;2023-07-30T14:42:34;2.17;;;1.77;;
33814;SDS011;20121;51.910;8.406;2023-07-30T14:45:00;5.33;;;2.10;;